Hauptseite
METAR-TAF:

METAR-TAF

Flughäfen :

Selawik, Alaska, Vereinigte Staaten

Breite: 66-37N, Länge: 160-00W, Höhe: 8 m

Beobachtung

Neuester Wetterbericht von vor 32 Minuten, um 04:56 UTC
Wind 10 kt aus West, Böen bis zu 16 kt
Temperatur 14°C
Luftfeuchtigkeit 67%
Luftdruck 1012 hPa
Sichtweite: 16.1 km
Himmel klar

METAR: PASK 180456Z AUTO 27010G16KT 10SM CLR 14/08 A2989 RMK AO2 SLP119 T01440083

Zeit: 21:28 (05:28 UTC)


TAF: fehlend

Wetterbeobachtungen und Prognosen von mehr als 4000 Flughäfen (METAR und TAF Bericht).

Die verfügbaren Stationen werden durch gelbe und rote Markierungen auf der Karte dargestellt.

Führen Sie die Maus auf sie, um den Namen der Station zu sehen.

Darauf klicken, um die Beobachtung von Wetterbeobachtungen und Prognosen zu sehen.

Um die Karte zu ändern : klicken Sie auf den grünen Tasten mit einem schwarzen Kreuz Zum Vergrößern, auf den grünen Button mit einem Gedankenstrich zu verkleinern, oder auf die grünen Pfeile für benachbarte Karten.


METAR-TAF: